Latest Weather Observations for Yarrawonga

IDN60801

Issued at 6:03 am EDT Thursday 8 December 2022 (issued every 10 minutes, with the page automatically refreshed every 10 minutes)

About weather observations | Map of weather stations | Latest weather observations for NSW | Other Formats
Station Details ID: 081124 Name: YARRAWONGA Lat: -36.03 Lon: 146.03 Height: 128.9 m
Data from the previous 72 hours. | See also: Recent months at Yarrawonga
Date/Time
EDT
Temp
°C
App
Temp
°C
Dew
Point
°C
Rel
Hum
%
Delta-T
°C
Wind Press
QNH
hPa
Press
MSL
hPa
Rain since
9am
mm
Dir  Spd
km/h
Gust
km/h
Spd
kts
Gust
kts
08/06:00am 7.6 3.0 3.6 76 1.7 WSW 17 22 9 12 1010.8 1010.3 0.0
08/05:30am 7.7 3.0 3.4 74 1.8 WSW 17 24 9 13 1010.5 1010.0 0.0
08/05:00am 8.2 3.2 3.5 72 2.0 WSW 19 24 10 13 1009.9 1009.4 0.0
08/04:30am 8.2 3.5 3.3 71 2.1 WSW 17 22 9 12 1009.8 1009.3 0.0
08/04:00am 8.4 3.1 2.8 68 2.4 SW 20 26 11 14 1009.6 1009.1 0.0
08/03:30am 8.9 2.8 2.7 65 2.6 WSW 24 32 13 17 1009.4 1008.9 0.0
08/03:00am 9.4 3.3 2.9 64 2.8 SW 24 33 13 18 1009.2 1008.7 0.0
08/02:30am 9.8 3.7 2.9 62 3.0 WSW 24 37 13 20 1009.3 1008.8 0.0
08/02:00am 10.3 3.8 2.7 59 3.3 SW 26 39 14 21 1009.0 1008.5 0.0
08/01:30am 10.9 5.6 4.8 66 2.8 SW 22 35 12 19 1009.1 1008.6 0.0
08/01:00am 11.4 5.8 5.5 67 2.7 SW 24 37 13 20 1008.8 1008.3 0.0
08/12:30am 11.9 5.1 5.3 64 3.1 SW 30 39 16 21 1008.6 1008.1 0.0
08/12:00am 12.5 5.4 5.7 63 3.2 SSW 32 48 17 26 1008.4 1007.9 0.0
 
Date/Time
EDT
Temp
°C
App
Temp
°C
Dew
Point
°C
Rel
Hum
%
Delta-T
°C
Wind Press
QNH
hPa
Press
MSL
hPa
Rain since
9am
mm
Dir  Spd
km/h
Gust
km/h
Spd
kts
Gust
kts
07/11:35pm 13.4 7.0 7.0 65 3.1 SSW 30 48 16 26 1008.1 1007.6 0.0
07/11:30pm 13.7 6.7 7.0 64 3.3 SW 33 46 18 25 1007.9 1007.4 0.0
07/11:00pm 15.6 7.0 6.3 54 4.6 SW 41 52 22 28 1006.7 1006.3 0.0
07/10:49pm 16.1 8.5 6.0 51 4.9 SW 35 54 19 29 1006.4 1005.9 0.0
07/10:39pm 16.2 10.1 6.6 53 4.7 SW 28 44 15 24 1006.1 1005.6 0.0
07/10:30pm 15.7 11.3 7.5 58 4.1 SW 20 26 11 14 1006.0 1005.5 0.0
07/10:00pm 16.8 11.6 7.4 54 4.7 SW 24 33 13 18 1005.6 1005.1 0.0
07/09:30pm 17.8 11.7 8.1 53 5.0 SW 30 44 16 24 1004.8 1004.3 0.0
07/09:00pm 18.4 12.5 8.9 54 5.0 SW 30 44 16 24 1004.1 1003.6 0.0
07/08:30pm 20.2 13.5 9.5 50 5.7 SW 35 48 19 26 1003.1 1002.6 0.0
07/08:00pm 22.1 16.5 8.6 42 7.2 SW 28 41 15 22 1002.2 1001.7 0.0
07/07:30pm 22.7 16.4 9.1 42 7.3 SW 32 46 17 25 1001.6 1001.1 0.0
07/07:19pm 23.9 16.5 8.3 37 8.3 SW 37 50 20 27 1001.4 1000.9 0.0
07/07:00pm 25.1 18.6 4.8 27 10.3 W 28 39 15 21 1000.8 1000.3 0.0
07/06:30pm 26.3 19.1 5.8 27 10.6 W 33 48 18 26 1000.4 999.9 0.0
07/06:10pm 26.6 20.5 6.6 28 10.5 W 28 46 15 25 1000.2 999.7 0.0
07/06:00pm 26.7 19.2 6.2 27 10.8 W 35 50 19 27 1000.1 999.6 0.0
07/05:30pm 26.3 20.5 6.4 28 10.4 W 26 37 14 20 1000.1 999.6 0.0
07/05:00pm 28.2 21.1 6.3 25 11.7 W 33 48 18 26 1000.2 999.7 0.0
07/04:52pm 26.9 21.4 5.8 26 11.0 W 24 48 13 26 1000.2 999.7 0.0
07/04:30pm 26.6 21.0 5.5 26 10.9 WNW 24 32 13 17 1000.6 1000.1 0.0
07/04:00pm 28.9 24.7 7.5 26 11.7 WNW 19 28 10 15 1000.8 1000.3 0.0
07/03:30pm 27.1 23.0 8.0 30 10.3 W 19 28 10 15 1001.2 1000.7 0.0
07/03:00pm 27.8 22.9 7.1 27 11.1 W 22 37 12 20 1001.5 1001.0 0.0
07/02:30pm 26.9 23.2 6.3 27 10.8 NW 15 24 8 13 1001.9 1001.4 0.0
07/02:00pm 27.0 22.5 5.9 26 11.1 WNW 19 28 10 15 1002.4 1001.9 0.0
07/01:30pm 27.1 21.8 4.8 24 11.4 NW 22 32 12 17 1002.8 1002.3 0.0
07/01:00pm 26.1 21.3 4.6 25 11.0 WNW 19 28 10 15 1003.3 1002.8 0.0
07/12:30pm 26.1 21.9 4.0 24 11.1 NW 15 30 8 16 1003.5 1003.0 0.0
07/12:00pm 25.0 21.0 3.0 24 10.8 NW 13 22 7 12 1003.8 1003.3 0.0
07/11:30am 24.2 20.7 3.5 26 10.2 WNW 11 19 6 10 1004.1 1003.6 0.0
07/11:00am 24.1 20.3 4.0 27 10.0 WNW 13 20 7 11 1004.2 1003.7 0.0
07/10:30am 24.1 20.0 4.5 28 9.8 NW 15 19 8 10 1004.4 1003.9 0.0
07/10:00am 23.1 20.1 7.6 37 8.2 N 13 17 7 9 1004.4 1003.9 0.0
07/09:30am 22.4 19.6 8.5 41 7.4 NNW 13 17 7 9 1004.7 1004.2 0.0
07/09:00am 20.9 19.1 9.5 48 6.1 NNW 9 15 5 8 1005.1 1004.6 0.0
07/08:30am 18.9 17.8 10.5 58 4.5 N 7 11 4 6 1005.1 1004.6 0.0
07/08:00am 17.3 16.7 11.6 69 3.1 N 6 9 3 5 1004.9 1004.4 0.0
07/07:30am 16.0 15.4 12.2 78 2.1 NE 7 7 4 4 1004.7 1004.2 0.0
07/07:00am 16.0 16.2 13.1 83 1.6 E 4 9 2 5 1004.6 1004.1 0.0
07/06:30am 12.7 12.0 11.3 91 0.7 ENE 6 6 3 3 1004.4 1003.9 0.0
07/06:00am 12.0 10.8 10.2 89 0.9 E 7 9 4 5 1004.2 1003.7 0.0
07/05:30am 13.0 12.1 10.5 85 1.3 SE 6 9 3 5 1004.1 1003.6 0.0
07/05:00am 13.9 13.7 11.8 87 1.1 SSE 4 7 2 4 1004.0 1003.5 0.0
07/04:30am 12.8 12.0 10.9 88 1.0 E 6 7 3 4 1004.1 1003.6 0.0
07/04:00am 14.0 14.3 11.0 82 1.6 CALM 0 0 0 0 1004.3 1003.8 0.0
07/03:30am 13.9 13.6 11.6 86 1.2 ESE 4 4 2 2 1004.6 1004.1 0.0
07/03:00am 13.1 13.4 11.0 87 1.1 CALM 0 0 0 0 1004.7 1004.2 0.0
07/02:30am 12.7 12.6 9.3 80 1.7 CALM 0 0 0 0 1005.0 1004.5 0.0
07/02:00am 13.2 13.1 9.3 77 2.0 CALM 0 0 0 0 1005.1 1004.6 0.0
07/01:30am 15.0 15.0 9.8 71 2.7 CALM 0 0 0 0 1005.4 1004.9 0.0
07/01:00am 15.0 15.1 10.0 72 2.6 CALM 0 0 0 0 1005.7 1005.2 0.0
07/12:30am 13.8 14.0 10.4 80 1.8 CALM 0 0 0 0 1005.7 1005.2 0.0
07/12:00am 13.7 13.4 8.7 72 2.5 CALM 0 0 0 0 1005.7 1005.2 0.0
 
Date/Time
EDT
Temp
°C
App
Temp
°C
Dew
Point
°C
Rel
Hum
%
Delta-T
°C
Wind Press
QNH
hPa
Press
MSL
hPa
Rain since
9am
mm
Dir  Spd
km/h
Gust
km/h
Spd
kts
Gust
kts
06/11:30pm 14.9 14.0 9.3 69 2.9 SW 4 4 2 2 1006.3 1005.8 0.0
06/11:00pm 15.4 14.2 9.5 68 3.1 SSW 6 7 3 4 1005.9 1005.4 0.0
06/10:30pm 15.4 14.1 9.3 67 3.2 SSW 6 6 3 3 1006.2 1005.7 0.0
06/10:00pm 16.6 15.5 9.8 64 3.6 SSW 6 6 3 3 1006.4 1005.9 0.0
06/09:30pm 17.2 16.3 9.1 59 4.2 S 4 4 2 2 1006.2 1005.7 0.0
06/09:00pm 18.5 16.9 8.2 51 5.3 SSW 6 6 3 3 1006.0 1005.5 0.0
06/08:30pm 19.6 18.1 8.3 48 5.9 SW 6 9 3 5 1006.0 1005.5 0.0
06/08:00pm 22.2 19.3 6.4 36 8.1 WSW 11 15 6 8 1006.0 1005.5 0.0
06/07:30pm 23.7 19.9 6.0 32 9.1 WSW 15 20 8 11 1005.7 1005.2 0.0
06/07:00pm 24.4 20.3 6.2 31 9.4 SW 17 24 9 13 1005.4 1004.9 0.0
06/06:30pm 25.2 20.8 6.4 30 9.8 SW 19 28 10 15 1005.3 1004.8 0.0
06/06:00pm 25.2 20.6 5.4 28 10.2 WSW 19 28 10 15 1005.2 1004.7 0.0
06/05:30pm 25.9 20.8 6.0 28 10.3 WSW 22 32 12 17 1005.4 1004.9 0.0
06/05:00pm 26.5 22.1 6.5 28 10.6 WSW 19 33 10 18 1005.6 1005.1 0.0
06/04:30pm 26.0 21.0 4.5 25 10.9 W 20 32 11 17 1005.9 1005.4 0.0
06/04:00pm 26.5 22.6 5.5 26 10.9 WSW 15 33 8 18 1006.0 1005.5 0.0
06/03:30pm 25.4 21.2 5.6 28 10.2 WSW 17 26 9 14 1006.2 1005.7 0.0
06/03:00pm 25.7 22.8 6.3 29 10.1 SW 11 17 6 9 1006.4 1005.9 0.0
06/02:30pm 25.8 23.0 6.9 30 10.0 SSW 11 28 6 15 1006.6 1006.1 0.0
06/02:00pm 25.2 21.4 5.9 29 10.0 WSW 15 33 8 18 1007.1 1006.6 0.0
06/01:30pm 24.1 20.9 6.8 33 9.0 WSW 13 24 7 13 1007.4 1006.9 0.0
06/01:00pm 23.8 21.3 6.6 33 8.9 NW 9 19 5 10 1007.5 1007.0 0.0
06/12:30pm 23.3 21.2 8.2 38 8.0 W 9 17 5 9 1008.1 1007.6 0.0
06/12:00pm 23.1 20.4 8.8 40 7.7 WSW 13 22 7 12 1008.4 1007.9 0.0
06/11:30am 22.9 20.9 10.0 44 7.1 WNW 11 19 6 10 1008.7 1008.2 0.0
06/11:00am 21.6 19.4 9.2 45 6.7 NW 11 17 6 9 1008.9 1008.4 0.0
06/10:30am 20.7 19.5 9.6 49 6.0 SW 6 9 3 5 1009.2 1008.7 0.0
06/10:00am 19.7 18.4 9.3 51 5.5 N 6 9 3 5 1009.3 1008.8 0.0
06/09:30am 18.7 17.6 10.5 59 4.4 S 7 11 4 6 1009.4 1008.9 0.0
06/09:00am 18.0 16.5 10.6 62 4.0 S 9 15 5 8 1009.5 1009.0 0.4
06/08:30am 16.7 14.4 10.5 67 3.3 SSW 13 24 7 13 1009.4 1008.9 0.4
06/08:00am 14.8 13.0 11.0 78 2.0 SW 11 17 6 9 1009.3 1008.8 0.4
06/07:30am 12.8 10.7 11.0 89 0.9 SW 13 17 7 9 1009.2 1008.7 0.4
06/07:00am 11.5 9.7 10.7 95 0.4 WSW 11 15 6 8 1009.0 1008.5 0.4
06/06:30am 10.2 8.6 10.1 99 0.1 WSW 9 11 5 6 1008.6 1008.1 0.4
06/06:00am 9.7 7.9 9.6 99 0.1 SW 9 11 5 6 1008.4 1007.9 0.4
06/05:30am 10.0 7.8 9.5 97 0.3 SW 11 15 6 8 1008.3 1007.8 0.4
06/05:00am 10.5 7.7 9.9 96 0.3 WSW 15 17 8 9 1008.4 1007.9 0.4
06/04:30am 10.6 7.4 9.8 95 0.4 WSW 17 22 9 12 1008.3 1007.8 0.4
06/04:00am 10.9 7.3 10.0 94 0.5 WSW 19 24 10 13 1008.2 1007.7 0.4
06/03:30am 10.8 7.5 9.7 93 0.6 WSW 17 22 9 12 1008.1 1007.6 0.4
06/03:00am 11.2 8.0 9.8 91 0.7 WSW 17 20 9 11 1008.2 1007.7 0.4
06/02:30am 11.8 8.2 9.7 87 1.1 WSW 19 22 10 12 1008.2 1007.7 0.4
06/02:00am 12.4 8.5 9.6 83 1.4 SW 20 26 11 14 1008.2 1007.7 0.4
06/01:30am 12.6 8.0 9.6 82 1.5 SW 24 33 13 18 1008.2 1007.7 0.4
06/01:00am 12.9 7.9 9.5 80 1.7 SW 26 35 14 19 1008.4 1007.9 0.4
06/12:30am 13.3 7.9 9.4 77 2.0 SW 28 39 15 21 1008.7 1008.2 0.4
06/12:00am 13.6 7.2 9.3 75 2.2 SW 33 46 18 25 1008.9 1008.4 0.4
 
Date/Time
EDT
Temp
°C
App
Temp
°C
Dew
Point
°C
Rel
Hum
%
Delta-T
°C
Wind Press
QNH
hPa
Press
MSL
hPa
Rain since
9am
mm
Dir  Spd
km/h
Gust
km/h
Spd
kts
Gust
kts
05/11:30pm 13.8 7.4 9.3 74 2.3 SW 33 48 18 26 1009.2 1008.7 0.4
05/11:00pm 14.0 7.5 9.0 72 2.6 SW 33 46 18 25 1009.4 1008.9 0.4
05/10:30pm 14.3 7.7 8.7 69 2.8 SW 33 43 18 23 1009.6 1009.1 0.4
05/10:00pm 14.8 8.3 8.3 65 3.3 SW 32 43 17 23 1009.7 1009.2 0.4
05/09:30pm 15.0 8.7 7.3 60 3.8 SW 30 37 16 20 1009.7 1009.2 0.4
05/09:00pm 15.4 9.7 6.7 56 4.3 SW 26 33 14 18 1009.6 1009.1 0.4
05/08:30pm 16.1 10.5 7.1 55 4.5 SW 26 37 14 20 1009.4 1008.9 0.4
05/08:10pm 16.6 10.3 7.5 55 4.6 SW 30 48 16 26 1009.3 1008.8 0.4
05/08:00pm 16.9 10.1 7.5 54 4.8 SW 33 46 18 25 1009.2 1008.7 0.4
05/07:30pm 17.9 10.1 8.2 53 5.0 SW 39 52 21 28 1008.9 1008.4 0.4
05/07:00pm 19.0 10.7 7.8 48 5.8 SW 41 54 22 29 1008.4 1007.9 0.4
05/06:30pm 20.3 12.8 8.0 45 6.4 SW 37 59 20 32 1008.1 1007.6 0.4
05/06:22pm 20.3 12.2 7.0 42 6.8 SW 39 59 21 32 1008.0 1007.5 0.4
05/06:00pm 20.9 12.5 7.2 41 7.1 SW 41 52 22 28 1007.7 1007.2 0.4
05/05:30pm 21.6 14.0 7.4 40 7.4 SSW 37 50 20 27 1007.4 1006.9 0.4
05/05:00pm 21.6 14.2 8.5 43 7.0 SW 37 54 20 29 1007.3 1006.8 0.4
05/04:30pm 22.2 15.3 8.7 42 7.2 SW 35 48 19 26 1007.2 1006.7 0.4
05/04:00pm 23.7 16.7 10.0 42 7.6 SW 37 50 20 27 1007.1 1006.6 0.4
05/03:30pm 23.7 17.4 9.7 41 7.7 SW 33 48 18 26 1007.0 1006.5 0.4
05/03:00pm 24.8 18.9 9.1 37 8.6 WSW 30 46 16 25 1006.7 1006.3 0.4
05/02:30pm 25.5 19.8 9.7 37 8.7 SW 30 43 16 23 1006.6 1006.1 0.4
05/02:00pm 24.9 20.5 10.4 40 8.1 SW 24 54 13 29 1006.6 1006.1 0.4
05/01:30pm 24.0 20.2 12.3 48 6.7 SW 24 35 13 19 1007.2 1006.7 0.4
05/01:00pm 20.8 17.9 12.8 60 4.6 SW 20 30 11 16 1007.8 1007.3 0.4
05/12:30pm 18.2 17.2 16.7 91 0.9 WSW 17 26 9 14 1007.9 1007.4 0.4
05/12:00pm 16.1 12.9 14.3 89 1.0 SW 24 33 13 18 1008.2 1007.7 0.0
05/11:30am 18.2 13.7 12.6 70 3.1 WSW 28 41 15 22 1008.2 1007.7 0.0
05/11:00am 18.5 15.6 12.9 70 3.2 WSW 20 28 11 15 1007.7 1007.2 0.0
05/10:30am 18.9 14.9 13.1 69 3.3 WSW 26 37 14 20 1007.8 1007.3 0.0
05/10:00am 19.3 16.9 12.8 66 3.7 W 17 26 9 14 1007.5 1007.0 0.0
05/09:30am 19.5 16.4 12.3 63 4.0 WSW 20 26 11 14 1007.1 1006.6 0.0
05/09:00am 20.5 18.3 12.2 59 4.7 W 15 22 8 12 1007.2 1006.7 0.0
05/08:30am 20.7 19.6 11.9 57 4.9 WNW 9 13 5 7 1006.4 1005.9 0.0
05/08:00am 20.8 19.0 12.0 57 5.0 WSW 13 19 7 10 1006.1 1005.6 0.0
05/07:30am 20.8 18.3 12.2 58 4.9 W 17 24 9 13 1006.4 1005.9 0.0
05/07:00am 21.2 19.1 12.3 57 5.1 W 15 20 8 11 1006.2 1005.7 0.0
05/06:30am 20.9 20.7 14.8 68 3.6 NW 9 28 5 15 1006.2 1005.7 0.0

Other formats

Comma delimited format used in spreadsheet applications
http://www.bom.gov.au/fwo/IDN60801/IDN60801.94862.axf

JavaScript Object Notation format (JSON) in row-major order
http://www.bom.gov.au/fwo/IDN60801/IDN60801.94862.json

Data quality

Most of these data are generated automatically and are frequently updated. Quality checks on data are not normally performed. It is possible for incorrect values to appear. Refer to information at About Latest Weather Observations and please check the disclaimer before using these data.